sensor_id;sensor_type;location;lat;lon;timestamp;P1;durP1;ratioP1;P2;durP2;ratioP2
29712;SDS011;16623;53.632;10.016;2022-11-06T00:01:10;11.13;;;5.18;;
29712;SDS011;16623;53.632;10.016;2022-11-06T00:03:38;5.40;;;4.50;;
29712;SDS011;16623;53.632;10.016;2022-11-06T00:06:06;12.23;;;4.72;;
29712;SDS011;16623;53.632;10.016;2022-11-06T00:08:51;10.15;;;4.65;;
29712;SDS011;16623;53.632;10.016;2022-11-06T00:11:16;10.02;;;4.40;;
29712;SDS011;16623;53.632;10.016;2022-11-06T00:13:42;9.65;;;3.85;;
29712;SDS011;16623;53.632;10.016;2022-11-06T00:16:10;11.68;;;5.15;;
29712;SDS011;16623;53.632;10.016;2022-11-06T00:18:36;6.10;;;4.18;;
29712;SDS011;16623;53.632;10.016;2022-11-06T00:21:36;15.60;;;4.47;;
29712;SDS011;16623;53.632;10.016;2022-11-06T00:23:55;8.82;;;3.78;;
29712;SDS011;16623;53.632;10.016;2022-11-06T00:26:24;17.60;;;6.18;;
29712;SDS011;16623;53.632;10.016;2022-11-06T00:28:51;8.18;;;4.65;;
29712;SDS011;16623;53.632;10.016;2022-11-06T00:31:18;7.13;;;3.75;;
29712;SDS011;16623;53.632;10.016;2022-11-06T00:33:51;5.18;;;3.50;;
29712;SDS011;16623;53.632;10.016;2022-11-06T00:36:20;8.27;;;3.40;;
29712;SDS011;16623;53.632;10.016;2022-11-06T00:38:49;6.53;;;3.70;;
29712;SDS011;16623;53.632;10.016;2022-11-06T00:41:17;8.68;;;4.57;;
29712;SDS011;16623;53.632;10.016;2022-11-06T00:43:46;10.13;;;3.97;;
29712;SDS011;16623;53.632;10.016;2022-11-06T00:46:16;13.43;;;4.43;;
29712;SDS011;16623;53.632;10.016;2022-11-06T00:48:45;10.40;;;3.92;;
29712;SDS011;16623;53.632;10.016;2022-11-06T00:51:12;7.07;;;3.90;;
29712;SDS011;16623;53.632;10.016;2022-11-06T00:53:40;13.77;;;4.35;;
29712;SDS011;16623;53.632;10.016;2022-11-06T00:56:13;8.57;;;3.85;;
29712;SDS011;16623;53.632;10.016;2022-11-06T00:58:41;7.30;;;3.90;;
29712;SDS011;16623;53.632;10.016;2022-11-06T01:01:12;8.88;;;3.85;;
29712;SDS011;16623;53.632;10.016;2022-11-06T01:03:43;13.00;;;3.45;;
29712;SDS011;16623;53.632;10.016;2022-11-06T01:06:15;9.57;;;4.07;;
29712;SDS011;16623;53.632;10.016;2022-11-06T01:08:43;7.07;;;3.67;;
29712;SDS011;16623;53.632;10.016;2022-11-06T01:11:11;10.05;;;4.10;;
29712;SDS011;16623;53.632;10.016;2022-11-06T01:13:43;8.43;;;3.60;;
29712;SDS011;16623;53.632;10.016;2022-11-06T01:16:10;10.82;;;3.63;;
29712;SDS011;16623;53.632;10.016;2022-11-06T01:18:38;12.23;;;4.15;;
29712;SDS011;16623;53.632;10.016;2022-11-06T01:21:05;5.65;;;2.63;;
29712;SDS011;16623;53.632;10.016;2022-11-06T01:23:32;8.93;;;4.30;;
29712;SDS011;16623;53.632;10.016;2022-11-06T01:26:00;16.95;;;4.10;;
29712;SDS011;16623;53.632;10.016;2022-11-06T01:28:27;8.60;;;3.72;;
29712;SDS011;16623;53.632;10.016;2022-11-06T01:30:53;6.63;;;3.42;;
29712;SDS011;16623;53.632;10.016;2022-11-06T01:33:19;8.25;;;3.53;;
29712;SDS011;16623;53.632;10.016;2022-11-06T01:35:49;10.27;;;3.50;;
29712;SDS011;16623;53.632;10.016;2022-11-06T01:38:15;8.32;;;3.33;;
29712;SDS011;16623;53.632;10.016;2022-11-06T01:40:45;9.27;;;3.83;;
29712;SDS011;16623;53.632;10.016;2022-11-06T01:43:16;9.38;;;3.15;;
29712;SDS011;16623;53.632;10.016;2022-11-06T01:45:44;9.02;;;3.42;;
29712;SDS011;16623;53.632;10.016;2022-11-06T01:48:13;8.65;;;3.45;;
29712;SDS011;16623;53.632;10.016;2022-11-06T01:50:42;8.13;;;3.00;;
29712;SDS011;16623;53.632;10.016;2022-11-06T01:53:10;8.43;;;3.70;;
29712;SDS011;16623;53.632;10.016;2022-11-06T01:55:38;7.28;;;3.47;;
29712;SDS011;16623;53.632;10.016;2022-11-06T01:58:06;15.55;;;3.95;;
29712;SDS011;16623;53.632;10.016;2022-11-06T02:00:35;11.95;;;4.10;;
29712;SDS011;16623;53.632;10.016;2022-11-06T02:03:01;6.57;;;3.25;;
29712;SDS011;16623;53.632;10.016;2022-11-06T02:05:27;10.45;;;3.45;;
29712;SDS011;16623;53.632;10.016;2022-11-06T02:07:54;12.00;;;4.22;;
29712;SDS011;16623;53.632;10.016;2022-11-06T02:10:20;7.85;;;5.05;;
29712;SDS011;16623;53.632;10.016;2022-11-06T02:12:48;11.68;;;3.85;;
29712;SDS011;16623;53.632;10.016;2022-11-06T02:18:11;6.90;;;3.17;;
29712;SDS011;16623;53.632;10.016;2022-11-06T02:20:41;8.13;;;3.42;;
29712;SDS011;16623;53.632;10.016;2022-11-06T02:23:21;10.35;;;4.13;;
29712;SDS011;16623;53.632;10.016;2022-11-06T02:28:59;9.80;;;4.55;;
29712;SDS011;16623;53.632;10.016;2022-11-06T02:31:30;8.43;;;3.28;;
29712;SDS011;16623;53.632;10.016;2022-11-06T02:34:03;9.32;;;3.97;;
29712;SDS011;16623;53.632;10.016;2022-11-06T02:36:34;6.85;;;3.40;;
29712;SDS011;16623;53.632;10.016;2022-11-06T02:39:06;12.55;;;3.95;;
29712;SDS011;16623;53.632;10.016;2022-11-06T02:41:36;7.07;;;4.05;;
29712;SDS011;16623;53.632;10.016;2022-11-06T02:44:06;10.57;;;4.90;;
29712;SDS011;16623;53.632;10.016;2022-11-06T02:46:39;10.30;;;3.67;;
29712;SDS011;16623;53.632;10.016;2022-11-06T02:49:11;7.60;;;4.32;;
29712;SDS011;16623;53.632;10.016;2022-11-06T02:51:39;10.57;;;3.97;;
29712;SDS011;16623;53.632;10.016;2022-11-06T02:54:10;14.80;;;3.90;;
29712;SDS011;16623;53.632;10.016;2022-11-06T02:56:38;10.70;;;4.13;;
29712;SDS011;16623;53.632;10.016;2022-11-06T03:01:58;5.13;;;3.38;;
29712;SDS011;16623;53.632;10.016;2022-11-06T03:04:29;9.00;;;4.00;;
29712;SDS011;16623;53.632;10.016;2022-11-06T03:07:39;6.03;;;3.42;;
29712;SDS011;16623;53.632;10.016;2022-11-06T03:10:16;10.88;;;4.00;;
29712;SDS011;16623;53.632;10.016;2022-11-06T03:16:02;6.32;;;3.58;;
29712;SDS011;16623;53.632;10.016;2022-11-06T03:21:21;4.80;;;3.78;;
29712;SDS011;16623;53.632;10.016;2022-11-06T03:23:53;8.20;;;4.15;;
29712;SDS011;16623;53.632;10.016;2022-11-06T03:26:35;7.50;;;3.63;;
29712;SDS011;16623;53.632;10.016;2022-11-06T03:29:07;13.63;;;3.83;;
29712;SDS011;16623;53.632;10.016;2022-11-06T03:31:46;9.45;;;3.85;;
29712;SDS011;16623;53.632;10.016;2022-11-06T03:34:30;10.55;;;3.60;;
29712;SDS011;16623;53.632;10.016;2022-11-06T03:37:02;8.50;;;3.60;;
29712;SDS011;16623;53.632;10.016;2022-11-06T03:39:35;8.40;;;3.97;;
29712;SDS011;16623;53.632;10.016;2022-11-06T03:42:09;5.82;;;3.50;;
29712;SDS011;16623;53.632;10.016;2022-11-06T03:44:39;8.90;;;3.15;;
29712;SDS011;16623;53.632;10.016;2022-11-06T03:49:48;6.38;;;3.33;;
29712;SDS011;16623;53.632;10.016;2022-11-06T03:52:36;5.30;;;3.03;;
29712;SDS011;16623;53.632;10.016;2022-11-06T03:55:11;11.10;;;4.28;;
29712;SDS011;16623;53.632;10.016;2022-11-06T03:57:45;5.82;;;3.17;;
29712;SDS011;16623;53.632;10.016;2022-11-06T04:00:14;9.80;;;3.25;;
29712;SDS011;16623;53.632;10.016;2022-11-06T04:02:45;7.10;;;3.60;;
29712;SDS011;16623;53.632;10.016;2022-11-06T04:05:19;6.07;;;3.58;;
29712;SDS011;16623;53.632;10.016;2022-11-06T04:07:48;8.80;;;3.67;;
29712;SDS011;16623;53.632;10.016;2022-11-06T04:10:34;6.70;;;3.28;;
29712;SDS011;16623;53.632;10.016;2022-11-06T04:13:22;8.25;;;3.58;;
29712;SDS011;16623;53.632;10.016;2022-11-06T04:16:09;7.85;;;3.38;;
29712;SDS011;16623;53.632;10.016;2022-11-06T04:18:36;9.45;;;3.97;;
29712;SDS011;16623;53.632;10.016;2022-11-06T04:21:10;10.27;;;3.88;;
29712;SDS011;16623;53.632;10.016;2022-11-06T04:26:56;9.38;;;3.50;;
29712;SDS011;16623;53.632;10.016;2022-11-06T04:32:32;10.60;;;4.10;;
29712;SDS011;16623;53.632;10.016;2022-11-06T04:38:05;10.40;;;3.67;;
29712;SDS011;16623;53.632;10.016;2022-11-06T04:40:52;10.98;;;3.58;;
29712;SDS011;16623;53.632;10.016;2022-11-06T04:43:25;9.00;;;3.35;;
29712;SDS011;16623;53.632;10.016;2022-11-06T04:46:02;6.40;;;3.60;;
29712;SDS011;16623;53.632;10.016;2022-11-06T04:48:30;9.68;;;3.50;;
29712;SDS011;16623;53.632;10.016;2022-11-06T04:50:57;8.27;;;2.65;;
29712;SDS011;16623;53.632;10.016;2022-11-06T04:53:27;6.82;;;3.50;;
29712;SDS011;16623;53.632;10.016;2022-11-06T04:55:55;10.25;;;4.38;;
29712;SDS011;16623;53.632;10.016;2022-11-06T04:58:25;6.47;;;4.38;;
29712;SDS011;16623;53.632;10.016;2022-11-06T05:00:51;6.25;;;3.25;;
29712;SDS011;16623;53.632;10.016;2022-11-06T05:03:16;6.70;;;3.17;;
29712;SDS011;16623;53.632;10.016;2022-11-06T05:05:42;9.48;;;3.55;;
29712;SDS011;16623;53.632;10.016;2022-11-06T05:08:11;5.47;;;3.00;;
29712;SDS011;16623;53.632;10.016;2022-11-06T05:10:39;5.40;;;3.38;;
29712;SDS011;16623;53.632;10.016;2022-11-06T05:13:05;7.53;;;3.28;;
29712;SDS011;16623;53.632;10.016;2022-11-06T05:15:30;7.63;;;3.63;;
29712;SDS011;16623;53.632;10.016;2022-11-06T05:17:57;6.72;;;3.15;;
29712;SDS011;16623;53.632;10.016;2022-11-06T05:20:23;9.35;;;3.80;;
29712;SDS011;16623;53.632;10.016;2022-11-06T05:22:49;10.93;;;3.28;;
29712;SDS011;16623;53.632;10.016;2022-11-06T05:27:59;6.13;;;3.00;;
29712;SDS011;16623;53.632;10.016;2022-11-06T05:30:26;9.60;;;4.25;;
29712;SDS011;16623;53.632;10.016;2022-11-06T05:32:52;5.53;;;3.13;;
29712;SDS011;16623;53.632;10.016;2022-11-06T05:35:18;8.23;;;3.20;;
29712;SDS011;16623;53.632;10.016;2022-11-06T05:37:45;9.18;;;3.22;;
29712;SDS011;16623;53.632;10.016;2022-11-06T05:40:11;10.00;;;3.40;;
29712;SDS011;16623;53.632;10.016;2022-11-06T05:42:38;5.78;;;3.75;;
29712;SDS011;16623;53.632;10.016;2022-11-06T05:45:05;9.98;;;3.80;;
29712;SDS011;16623;53.632;10.016;2022-11-06T05:47:32;9.85;;;4.10;;
29712;SDS011;16623;53.632;10.016;2022-11-06T05:49:58;8.60;;;2.85;;
29712;SDS011;16623;53.632;10.016;2022-11-06T05:52:23;7.18;;;3.30;;
29712;SDS011;16623;53.632;10.016;2022-11-06T05:54:49;13.60;;;3.08;;
29712;SDS011;16623;53.632;10.016;2022-11-06T05:57:14;5.32;;;2.67;;
29712;SDS011;16623;53.632;10.016;2022-11-06T05:59:40;7.50;;;3.30;;
29712;SDS011;16623;53.632;10.016;2022-11-06T06:02:06;12.93;;;3.90;;
29712;SDS011;16623;53.632;10.016;2022-11-06T06:04:31;5.90;;;3.85;;
29712;SDS011;16623;53.632;10.016;2022-11-06T06:06:57;5.78;;;3.20;;
29712;SDS011;16623;53.632;10.016;2022-11-06T06:09:22;6.90;;;3.25;;
29712;SDS011;16623;53.632;10.016;2022-11-06T06:11:51;9.57;;;3.50;;
29712;SDS011;16623;53.632;10.016;2022-11-06T06:14:18;12.15;;;4.18;;
29712;SDS011;16623;53.632;10.016;2022-11-06T06:16:44;11.80;;;3.70;;
29712;SDS011;16623;53.632;10.016;2022-11-06T06:19:09;6.53;;;2.90;;
29712;SDS011;16623;53.632;10.016;2022-11-06T06:21:35;8.82;;;3.88;;
29712;SDS011;16623;53.632;10.016;2022-11-06T06:24:01;7.32;;;3.42;;
29712;SDS011;16623;53.632;10.016;2022-11-06T06:26:27;7.15;;;3.47;;
29712;SDS011;16623;53.632;10.016;2022-11-06T06:28:53;8.27;;;3.40;;
29712;SDS011;16623;53.632;10.016;2022-11-06T06:31:18;7.13;;;3.42;;
29712;SDS011;16623;53.632;10.016;2022-11-06T06:33:45;10.65;;;3.72;;
29712;SDS011;16623;53.632;10.016;2022-11-06T06:36:10;13.25;;;3.28;;
29712;SDS011;16623;53.632;10.016;2022-11-06T06:38:36;7.72;;;3.47;;
29712;SDS011;16623;53.632;10.016;2022-11-06T06:41:06;4.68;;;3.20;;
29712;SDS011;16623;53.632;10.016;2022-11-06T06:43:33;14.32;;;4.80;;
29712;SDS011;16623;53.632;10.016;2022-11-06T06:45:59;6.50;;;3.45;;
29712;SDS011;16623;53.632;10.016;2022-11-06T06:48:26;5.40;;;3.25;;
29712;SDS011;16623;53.632;10.016;2022-11-06T06:50:55;10.50;;;3.72;;
29712;SDS011;16623;53.632;10.016;2022-11-06T06:53:21;6.65;;;3.00;;
29712;SDS011;16623;53.632;10.016;2022-11-06T06:55:49;9.23;;;3.33;;
29712;SDS011;16623;53.632;10.016;2022-11-06T06:58:14;10.88;;;3.42;;
29712;SDS011;16623;53.632;10.016;2022-11-06T07:00:40;8.25;;;3.45;;
29712;SDS011;16623;53.632;10.016;2022-11-06T07:03:05;4.43;;;2.40;;
29712;SDS011;16623;53.632;10.016;2022-11-06T07:05:31;9.82;;;3.10;;
29712;SDS011;16623;53.632;10.016;2022-11-06T07:07:56;5.43;;;3.25;;
29712;SDS011;16623;53.632;10.016;2022-11-06T07:10:22;9.25;;;2.90;;
29712;SDS011;16623;53.632;10.016;2022-11-06T07:12:47;4.28;;;3.00;;
29712;SDS011;16623;53.632;10.016;2022-11-06T07:15:13;7.22;;;3.03;;
29712;SDS011;16623;53.632;10.016;2022-11-06T07:17:39;7.95;;;2.97;;
29712;SDS011;16623;53.632;10.016;2022-11-06T07:20:05;8.15;;;3.78;;
29712;SDS011;16623;53.632;10.016;2022-11-06T07:22:31;7.63;;;3.65;;
29712;SDS011;16623;53.632;10.016;2022-11-06T07:24:57;8.30;;;3.13;;
29712;SDS011;16623;53.632;10.016;2022-11-06T07:27:23;10.57;;;3.30;;
29712;SDS011;16623;53.632;10.016;2022-11-06T07:29:50;6.93;;;3.00;;
29712;SDS011;16623;53.632;10.016;2022-11-06T07:32:15;10.82;;;3.17;;
29712;SDS011;16623;53.632;10.016;2022-11-06T07:34:41;5.07;;;3.03;;
29712;SDS011;16623;53.632;10.016;2022-11-06T07:37:06;6.20;;;2.83;;
29712;SDS011;16623;53.632;10.016;2022-11-06T07:39:32;10.07;;;3.17;;
29712;SDS011;16623;53.632;10.016;2022-11-06T07:41:58;6.38;;;3.58;;
29712;SDS011;16623;53.632;10.016;2022-11-06T07:44:24;10.38;;;3.28;;
29712;SDS011;16623;53.632;10.016;2022-11-06T07:46:49;6.40;;;2.80;;
29712;SDS011;16623;53.632;10.016;2022-11-06T07:49:15;8.43;;;3.03;;
29712;SDS011;16623;53.632;10.016;2022-11-06T07:51:41;6.15;;;2.83;;
29712;SDS011;16623;53.632;10.016;2022-11-06T07:54:09;7.82;;;3.33;;
29712;SDS011;16623;53.632;10.016;2022-11-06T07:56:35;6.25;;;2.72;;
29712;SDS011;16623;53.632;10.016;2022-11-06T07:59:00;8.48;;;2.80;;
29712;SDS011;16623;53.632;10.016;2022-11-06T08:01:26;10.88;;;3.03;;
29712;SDS011;16623;53.632;10.016;2022-11-06T08:03:51;7.63;;;2.75;;
29712;SDS011;16623;53.632;10.016;2022-11-06T08:06:17;10.40;;;3.20;;
29712;SDS011;16623;53.632;10.016;2022-11-06T08:08:42;9.05;;;2.90;;
29712;SDS011;16623;53.632;10.016;2022-11-06T08:11:09;7.18;;;2.40;;
29712;SDS011;16623;53.632;10.016;2022-11-06T08:13:35;10.55;;;2.97;;
29712;SDS011;16623;53.632;10.016;2022-11-06T08:16:02;5.60;;;2.55;;
29712;SDS011;16623;53.632;10.016;2022-11-06T08:18:33;4.97;;;2.55;;
29712;SDS011;16623;53.632;10.016;2022-11-06T08:20:58;10.77;;;3.35;;
29712;SDS011;16623;53.632;10.016;2022-11-06T08:23:24;8.13;;;2.75;;
29712;SDS011;16623;53.632;10.016;2022-11-06T08:25:57;4.15;;;2.60;;
29712;SDS011;16623;53.632;10.016;2022-11-06T08:28:25;7.55;;;2.55;;
29712;SDS011;16623;53.632;10.016;2022-11-06T08:30:51;8.95;;;2.22;;
29712;SDS011;16623;53.632;10.016;2022-11-06T08:33:17;12.00;;;2.90;;
29712;SDS011;16623;53.632;10.016;2022-11-06T08:35:44;8.13;;;2.83;;
29712;SDS011;16623;53.632;10.016;2022-11-06T08:38:16;12.88;;;2.72;;
29712;SDS011;16623;53.632;10.016;2022-11-06T08:40:44;8.40;;;2.95;;
29712;SDS011;16623;53.632;10.016;2022-11-06T08:43:10;6.60;;;2.58;;
29712;SDS011;16623;53.632;10.016;2022-11-06T08:45:36;5.50;;;2.60;;
29712;SDS011;16623;53.632;10.016;2022-11-06T08:48:03;6.95;;;2.67;;
29712;SDS011;16623;53.632;10.016;2022-11-06T08:50:29;8.02;;;2.63;;
29712;SDS011;16623;53.632;10.016;2022-11-06T08:52:56;5.28;;;2.90;;
29712;SDS011;16623;53.632;10.016;2022-11-06T08:55:28;10.82;;;3.17;;
29712;SDS011;16623;53.632;10.016;2022-11-06T08:57:56;4.65;;;2.78;;
29712;SDS011;16623;53.632;10.016;2022-11-06T09:00:22;15.43;;;3.17;;
29712;SDS011;16623;53.632;10.016;2022-11-06T09:02:48;5.75;;;2.42;;
29712;SDS011;16623;53.632;10.016;2022-11-06T09:05:14;8.38;;;2.60;;
29712;SDS011;16623;53.632;10.016;2022-11-06T09:07:40;6.15;;;2.42;;
29712;SDS011;16623;53.632;10.016;2022-11-06T09:10:06;3.92;;;2.30;;
29712;SDS011;16623;53.632;10.016;2022-11-06T09:12:31;3.40;;;2.00;;
29712;SDS011;16623;53.632;10.016;2022-11-06T09:14:57;7.57;;;2.25;;
29712;SDS011;16623;53.632;10.016;2022-11-06T09:17:22;8.93;;;3.22;;
29712;SDS011;16623;53.632;10.016;2022-11-06T09:19:49;5.53;;;2.30;;
29712;SDS011;16623;53.632;10.016;2022-11-06T09:22:15;7.47;;;2.95;;
29712;SDS011;16623;53.632;10.016;2022-11-06T09:24:40;7.88;;;1.90;;
29712;SDS011;16623;53.632;10.016;2022-11-06T09:27:06;10.52;;;2.83;;
29712;SDS011;16623;53.632;10.016;2022-11-06T09:29:31;3.80;;;1.92;;
29712;SDS011;16623;53.632;10.016;2022-11-06T09:31:57;6.13;;;2.25;;
29712;SDS011;16623;53.632;10.016;2022-11-06T09:34:22;7.22;;;2.97;;
29712;SDS011;16623;53.632;10.016;2022-11-06T09:36:48;5.95;;;1.95;;
29712;SDS011;16623;53.632;10.016;2022-11-06T09:39:14;6.15;;;2.17;;
29712;SDS011;16623;53.632;10.016;2022-11-06T09:41:56;6.50;;;2.90;;
29712;SDS011;16623;53.632;10.016;2022-11-06T09:44:41;9.38;;;2.58;;
29712;SDS011;16623;53.632;10.016;2022-11-06T09:47:12;5.95;;;2.75;;
29712;SDS011;16623;53.632;10.016;2022-11-06T09:49:49;5.20;;;1.90;;
29712;SDS011;16623;53.632;10.016;2022-11-06T09:52:29;14.15;;;2.35;;
29712;SDS011;16623;53.632;10.016;2022-11-06T09:55:00;5.13;;;2.47;;
29712;SDS011;16623;53.632;10.016;2022-11-06T09:57:36;5.88;;;2.70;;
29712;SDS011;16623;53.632;10.016;2022-11-06T10:00:06;9.35;;;3.08;;
29712;SDS011;16623;53.632;10.016;2022-11-06T10:02:58;5.40;;;2.40;;
29712;SDS011;16623;53.632;10.016;2022-11-06T10:05:31;6.00;;;2.00;;
29712;SDS011;16623;53.632;10.016;2022-11-06T10:08:03;6.90;;;1.83;;
29712;SDS011;16623;53.632;10.016;2022-11-06T10:10:44;7.65;;;2.40;;
29712;SDS011;16623;53.632;10.016;2022-11-06T10:18:37;12.65;;;2.72;;
29712;SDS011;16623;53.632;10.016;2022-11-06T10:26:19;9.05;;;2.05;;
29712;SDS011;16623;53.632;10.016;2022-11-06T10:31:47;10.25;;;3.15;;
29712;SDS011;16623;53.632;10.016;2022-11-06T10:34:42;7.32;;;2.05;;
29712;SDS011;16623;53.632;10.016;2022-11-06T10:37:19;4.68;;;2.10;;
29712;SDS011;16623;53.632;10.016;2022-11-06T10:39:50;8.48;;;1.95;;
29712;SDS011;16623;53.632;10.016;2022-11-06T10:42:19;4.57;;;1.80;;
29712;SDS011;16623;53.632;10.016;2022-11-06T10:44:55;4.68;;;1.67;;
29712;SDS011;16623;53.632;10.016;2022-11-06T10:47:29;5.63;;;1.90;;
29712;SDS011;16623;53.632;10.016;2022-11-06T10:50:03;7.63;;;1.80;;
29712;SDS011;16623;53.632;10.016;2022-11-06T10:52:41;4.85;;;1.63;;
29712;SDS011;16623;53.632;10.016;2022-11-06T10:55:36;6.28;;;1.80;;
29712;SDS011;16623;53.632;10.016;2022-11-06T10:58:26;3.60;;;1.65;;
29712;SDS011;16623;53.632;10.016;2022-11-06T11:00:58;6.53;;;2.00;;
29712;SDS011;16623;53.632;10.016;2022-11-06T11:03:27;5.00;;;1.85;;
29712;SDS011;16623;53.632;10.016;2022-11-06T11:05:55;7.32;;;2.30;;
29712;SDS011;16623;53.632;10.016;2022-11-06T11:13:26;6.65;;;1.90;;
29712;SDS011;16623;53.632;10.016;2022-11-06T11:15:52;4.57;;;1.80;;
29712;SDS011;16623;53.632;10.016;2022-11-06T11:18:21;7.53;;;1.95;;
29712;SDS011;16623;53.632;10.016;2022-11-06T11:21:03;3.55;;;1.90;;
29712;SDS011;16623;53.632;10.016;2022-11-06T11:23:30;2.78;;;1.50;;
29712;SDS011;16623;53.632;10.016;2022-11-06T11:25:56;9.30;;;2.30;;
29712;SDS011;16623;53.632;10.016;2022-11-06T11:28:38;11.93;;;2.10;;
29712;SDS011;16623;53.632;10.016;2022-11-06T11:31:12;5.43;;;1.77;;
29712;SDS011;16623;53.632;10.016;2022-11-06T11:33:41;7.18;;;2.00;;
29712;SDS011;16623;53.632;10.016;2022-11-06T11:36:15;4.88;;;1.60;;
29712;SDS011;16623;53.632;10.016;2022-11-06T11:38:40;5.32;;;1.73;;
29712;SDS011;16623;53.632;10.016;2022-11-06T11:41:11;5.22;;;1.83;;
29712;SDS011;16623;53.632;10.016;2022-11-06T11:43:39;4.72;;;1.92;;
29712;SDS011;16623;53.632;10.016;2022-11-06T11:48:45;4.43;;;1.70;;
29712;SDS011;16623;53.632;10.016;2022-11-06T11:51:24;5.97;;;1.85;;
29712;SDS011;16623;53.632;10.016;2022-11-06T11:53:58;7.43;;;1.87;;
29712;SDS011;16623;53.632;10.016;2022-11-06T11:59:28;7.97;;;1.58;;
29712;SDS011;16623;53.632;10.016;2022-11-06T12:02:02;3.53;;;1.80;;
29712;SDS011;16623;53.632;10.016;2022-11-06T12:04:50;3.03;;;1.65;;
29712;SDS011;16623;53.632;10.016;2022-11-06T12:07:24;4.63;;;2.03;;
29712;SDS011;16623;53.632;10.016;2022-11-06T12:09:54;6.60;;;1.58;;
29712;SDS011;16623;53.632;10.016;2022-11-06T12:12:21;3.25;;;1.40;;
29712;SDS011;16623;53.632;10.016;2022-11-06T12:15:02;4.22;;;1.63;;
29712;SDS011;16623;53.632;10.016;2022-11-06T12:17:28;4.40;;;1.65;;
29712;SDS011;16623;53.632;10.016;2022-11-06T12:19:57;8.43;;;1.55;;
29712;SDS011;16623;53.632;10.016;2022-11-06T12:22:28;3.72;;;1.40;;
29712;SDS011;16623;53.632;10.016;2022-11-06T12:25:03;4.60;;;1.73;;
29712;SDS011;16623;53.632;10.016;2022-11-06T12:27:39;6.97;;;1.75;;
29712;SDS011;16623;53.632;10.016;2022-11-06T12:30:09;6.50;;;1.35;;
29712;SDS011;16623;53.632;10.016;2022-11-06T12:35:28;5.40;;;1.80;;
29712;SDS011;16623;53.632;10.016;2022-11-06T12:38:09;6.57;;;1.63;;
29712;SDS011;16623;53.632;10.016;2022-11-06T12:43:21;7.38;;;1.95;;
29712;SDS011;16623;53.632;10.016;2022-11-06T12:46:02;4.45;;;1.60;;
29712;SDS011;16623;53.632;10.016;2022-11-06T12:48:55;4.07;;;1.73;;
29712;SDS011;16623;53.632;10.016;2022-11-06T12:59:40;4.40;;;1.70;;
29712;SDS011;16623;53.632;10.016;2022-11-06T13:05:16;3.25;;;1.52;;
29712;SDS011;16623;53.632;10.016;2022-11-06T13:11:02;4.72;;;1.70;;
29712;SDS011;16623;53.632;10.016;2022-11-06T13:24:24;3.97;;;1.83;;
29712;SDS011;16623;53.632;10.016;2022-11-06T13:27:07;7.30;;;1.75;;
29712;SDS011;16623;53.632;10.016;2022-11-06T13:30:05;5.40;;;1.60;;
29712;SDS011;16623;53.632;10.016;2022-11-06T13:33:25;2.75;;;1.60;;
29712;SDS011;16623;53.632;10.016;2022-11-06T13:35:36;3.13;;;1.85;;
29712;SDS011;16623;53.632;10.016;2022-11-06T13:38:10;4.65;;;1.70;;
29712;SDS011;16623;53.632;10.016;2022-11-06T13:40:44;3.88;;;1.90;;
29712;SDS011;16623;53.632;10.016;2022-11-06T13:43:17;7.55;;;2.92;;
29712;SDS011;16623;53.632;10.016;2022-11-06T13:45:50;6.22;;;1.70;;
29712;SDS011;16623;53.632;10.016;2022-11-06T13:51:31;2.83;;;1.52;;
29712;SDS011;16623;53.632;10.016;2022-11-06T14:07:52;7.63;;;1.90;;
29712;SDS011;16623;53.632;10.016;2022-11-06T14:10:21;4.60;;;1.75;;
29712;SDS011;16623;53.632;10.016;2022-11-06T14:13:01;5.85;;;2.05;;
29712;SDS011;16623;53.632;10.016;2022-11-06T14:18:02;4.95;;;1.80;;
29712;SDS011;16623;53.632;10.016;2022-11-06T14:23:43;4.78;;;2.10;;
29712;SDS011;16623;53.632;10.016;2022-11-06T14:25:59;5.57;;;1.83;;
29712;SDS011;16623;53.632;10.016;2022-11-06T14:28:27;2.38;;;1.45;;
29712;SDS011;16623;53.632;10.016;2022-11-06T14:30:57;4.32;;;2.10;;
29712;SDS011;16623;53.632;10.016;2022-11-06T14:36:11;4.35;;;1.85;;
29712;SDS011;16623;53.632;10.016;2022-11-06T14:38:57;5.20;;;2.10;;
29712;SDS011;16623;53.632;10.016;2022-11-06T14:44:21;4.03;;;2.13;;
29712;SDS011;16623;53.632;10.016;2022-11-06T14:47:03;6.43;;;2.25;;
29712;SDS011;16623;53.632;10.016;2022-11-06T14:49:35;3.47;;;1.98;;
29712;SDS011;16623;53.632;10.016;2022-11-06T14:52:11;4.88;;;2.67;;
29712;SDS011;16623;53.632;10.016;2022-11-06T14:54:39;5.53;;;2.13;;
29712;SDS011;16623;53.632;10.016;2022-11-06T14:57:32;6.28;;;2.35;;
29712;SDS011;16623;53.632;10.016;2022-11-06T15:00:13;3.72;;;2.08;;
29712;SDS011;16623;53.632;10.016;2022-11-06T15:03:03;6.60;;;2.25;;
29712;SDS011;16623;53.632;10.016;2022-11-06T15:05:39;4.65;;;2.25;;
29712;SDS011;16623;53.632;10.016;2022-11-06T15:08:05;9.20;;;2.72;;
29712;SDS011;16623;53.632;10.016;2022-11-06T15:15:46;6.63;;;2.88;;
29712;SDS011;16623;53.632;10.016;2022-11-06T15:18:16;6.05;;;3.97;;
29712;SDS011;16623;53.632;10.016;2022-11-06T15:20:47;5.43;;;2.70;;
29712;SDS011;16623;53.632;10.016;2022-11-06T15:23:18;4.68;;;2.40;;
29712;SDS011;16623;53.632;10.016;2022-11-06T15:26:05;5.10;;;2.60;;
29712;SDS011;16623;53.632;10.016;2022-11-06T15:28:42;3.75;;;1.92;;
29712;SDS011;16623;53.632;10.016;2022-11-06T15:31:11;6.07;;;2.45;;
29712;SDS011;16623;53.632;10.016;2022-11-06T15:33:50;4.43;;;2.47;;
29712;SDS011;16623;53.632;10.016;2022-11-06T15:36:24;6.95;;;2.30;;
29712;SDS011;16623;53.632;10.016;2022-11-06T15:38:51;2.95;;;2.10;;
29712;SDS011;16623;53.632;10.016;2022-11-06T15:41:17;3.67;;;2.20;;
29712;SDS011;16623;53.632;10.016;2022-11-06T15:43:46;7.18;;;2.10;;
29712;SDS011;16623;53.632;10.016;2022-11-06T15:46:24;8.82;;;2.50;;
29712;SDS011;16623;53.632;10.016;2022-11-06T15:49:07;6.18;;;2.15;;
29712;SDS011;16623;53.632;10.016;2022-11-06T15:51:48;4.43;;;2.13;;
29712;SDS011;16623;53.632;10.016;2022-11-06T15:54:37;5.43;;;2.53;;
29712;SDS011;16623;53.632;10.016;2022-11-06T15:57:27;3.30;;;2.25;;
29712;SDS011;16623;53.632;10.016;2022-11-06T16:00:05;4.40;;;2.20;;
29712;SDS011;16623;53.632;10.016;2022-11-06T16:02:31;5.50;;;2.55;;
29712;SDS011;16623;53.632;10.016;2022-11-06T16:04:57;4.50;;;2.58;;
29712;SDS011;16623;53.632;10.016;2022-11-06T16:07:22;3.03;;;2.28;;
29712;SDS011;16623;53.632;10.016;2022-11-06T16:09:49;7.63;;;2.42;;
29712;SDS011;16623;53.632;10.016;2022-11-06T16:12:16;6.15;;;2.50;;
29712;SDS011;16623;53.632;10.016;2022-11-06T16:14:42;6.15;;;2.50;;
29712;SDS011;16623;53.632;10.016;2022-11-06T16:17:30;6.47;;;2.00;;
29712;SDS011;16623;53.632;10.016;2022-11-06T16:19:56;7.35;;;2.08;;
29712;SDS011;16623;53.632;10.016;2022-11-06T16:22:28;8.80;;;2.60;;
29712;SDS011;16623;53.632;10.016;2022-11-06T16:24:57;8.75;;;4.10;;
29712;SDS011;16623;53.632;10.016;2022-11-06T16:27:25;4.05;;;2.17;;
29712;SDS011;16623;53.632;10.016;2022-11-06T16:29:55;6.93;;;2.75;;
29712;SDS011;16623;53.632;10.016;2022-11-06T16:32:24;7.65;;;2.83;;
29712;SDS011;16623;53.632;10.016;2022-11-06T16:34:51;6.97;;;2.60;;
29712;SDS011;16623;53.632;10.016;2022-11-06T16:47:41;6.63;;;2.40;;
29712;SDS011;16623;53.632;10.016;2022-11-06T16:53:10;4.28;;;2.70;;
29712;SDS011;16623;53.632;10.016;2022-11-06T16:55:42;5.32;;;2.78;;
29712;SDS011;16623;53.632;10.016;2022-11-06T16:58:12;8.35;;;2.88;;
29712;SDS011;16623;53.632;10.016;2022-11-06T17:00:44;6.10;;;2.45;;
29712;SDS011;16623;53.632;10.016;2022-11-06T17:03:17;7.15;;;2.70;;